Preview of NWS' New Version of Forecast
This preview is not operational and should not be used for support decisions.

Terminal Aerodrome Forecast (TAF)

Issued by National Weather Service (NWS)

                            
000
FTUS46 KSEW 230722 AAA
TAFBLI
TAF AMD
KBLI 230722Z 2307/2406 VRB03KT P6SM SCT020 OVC040
     FM231200 17007KT 3SM BR SCT007 OVC015
     FM232100 17012KT 6SM -SHRA BR OVC015
     FM240000 16008KT 6SM -SHRA BR OVC020=